createdAt,value
2022-07-26T00:01:57.955Z,1006.1
2022-07-26T00:05:10.106Z,1006.2
2022-07-26T00:08:22.247Z,1006.3
2022-07-26T00:11:34.402Z,1006.3
2022-07-26T00:14:45.588Z,1006.2
2022-07-26T00:17:56.745Z,1006.3
2022-07-26T00:21:07.926Z,1006.2
2022-07-26T00:24:19.079Z,1006.3
2022-07-26T00:27:30.268Z,1006.3
2022-07-26T00:30:41.493Z,1006.4
2022-07-26T00:33:53.644Z,1006.5
2022-07-26T00:37:05.801Z,1006.5
2022-07-26T00:40:17.937Z,1006.5
2022-07-26T00:43:30.087Z,1006.4
2022-07-26T00:46:42.238Z,1006.5
2022-07-26T00:49:54.389Z,1006.5
2022-07-26T00:53:06.540Z,1006.5
2022-07-26T00:56:18.686Z,1006.4
2022-07-26T00:59:30.839Z,1006.5
2022-07-26T01:02:43.000Z,1006.5
2022-07-26T01:05:55.148Z,1006.5
2022-07-26T01:09:07.293Z,1006.5
2022-07-26T01:12:18.458Z,1006.6
2022-07-26T01:15:30.617Z,1006.6
2022-07-26T01:18:42.758Z,1006.7
2022-07-26T01:21:54.900Z,1006.7
2022-07-26T01:25:07.056Z,1006.8
2022-07-26T01:28:19.204Z,1006.7
2022-07-26T01:31:31.352Z,1006.7
2022-07-26T01:34:42.527Z,1006.6
2022-07-26T01:37:53.699Z,1006.8
2022-07-26T01:41:05.857Z,1006.8
2022-07-26T01:44:18.002Z,1006.8
2022-07-26T01:47:30.159Z,1006.9
2022-07-26T01:50:42.297Z,1006.9
2022-07-26T01:53:54.454Z,1007
2022-07-26T01:57:06.597Z,1006.9
2022-07-26T02:00:18.748Z,1007
2022-07-26T02:03:30.894Z,1007.1
2022-07-26T02:06:43.045Z,1007
2022-07-26T02:09:55.197Z,1007
2022-07-26T02:13:07.362Z,1006.9
2022-07-26T02:16:19.516Z,1006.8
2022-07-26T02:19:30.682Z,1006.9
2022-07-26T02:22:42.838Z,1006.9
2022-07-26T02:25:54.970Z,1006.8
2022-07-26T02:29:07.127Z,1006.8
2022-07-26T02:32:19.268Z,1006.9
2022-07-26T02:35:31.437Z,1006.9
2022-07-26T02:38:43.571Z,1006.9
2022-07-26T02:41:54.755Z,1006.9
2022-07-26T02:45:05.915Z,1006.9
2022-07-26T02:48:17.093Z,1006.8
2022-07-26T02:51:28.271Z,1006.8
2022-07-26T02:54:40.413Z,1006.8
2022-07-26T02:57:52.565Z,1006.8
2022-07-26T03:01:04.730Z,1006.9
2022-07-26T03:04:16.878Z,1006.8
2022-07-26T03:07:29.030Z,1006.8
2022-07-26T03:10:41.181Z,1006.8
2022-07-26T03:13:53.318Z,1006.8
2022-07-26T03:17:05.464Z,1006.9
2022-07-26T03:20:17.623Z,1006.8
2022-07-26T03:23:29.780Z,1006.9
2022-07-26T03:26:41.930Z,1006.9
2022-07-26T03:29:54.084Z,1006.9
2022-07-26T03:33:05.238Z,1006.9
2022-07-26T03:36:17.398Z,1007
2022-07-26T03:39:29.555Z,1007
2022-07-26T03:42:41.703Z,1007
2022-07-26T03:45:53.845Z,1007
2022-07-26T03:49:06.006Z,1007
2022-07-26T03:52:18.155Z,1007
2022-07-26T03:55:29.317Z,1007
2022-07-26T03:58:40.501Z,1007
2022-07-26T04:01:51.664Z,1007
2022-07-26T04:05:02.829Z,1007
2022-07-26T04:08:14.986Z,1006.9
2022-07-26T04:11:27.132Z,1006.9
2022-07-26T04:14:39.290Z,1006.9
2022-07-26T04:17:51.446Z,1007
2022-07-26T04:21:03.578Z,1007
2022-07-26T04:24:15.732Z,1007
2022-07-26T04:27:27.894Z,1007
2022-07-26T04:30:40.042Z,1006.9
2022-07-26T04:33:52.180Z,1007
2022-07-26T04:37:04.336Z,1007
2022-07-26T04:40:16.495Z,1007.1
2022-07-26T04:43:28.640Z,1007.1
2022-07-26T04:46:39.811Z,1007
2022-07-26T04:49:51.958Z,1007
2022-07-26T04:53:04.114Z,1007.1
2022-07-26T04:56:16.256Z,1007.1
2022-07-26T04:59:28.402Z,1007.1
2022-07-26T05:02:40.558Z,1007.1
2022-07-26T05:05:52.706Z,1007.1
2022-07-26T05:09:03.882Z,1007.2
2022-07-26T05:12:15.054Z,1007.2
2022-07-26T05:15:26.227Z,1007.2
2022-07-26T05:18:37.402Z,1007.2
2022-07-26T05:21:48.567Z,1007.3
2022-07-26T05:24:59.749Z,1007.3
2022-07-26T05:28:10.907Z,1007.3
2022-07-26T05:31:22.085Z,1007.3
2022-07-26T05:34:34.227Z,1007.4
2022-07-26T05:37:46.386Z,1007.4
2022-07-26T05:40:58.536Z,1007.4
2022-07-26T05:44:10.692Z,1007.4
2022-07-26T05:47:22.834Z,1007.4
2022-07-26T05:50:34.985Z,1007.6
2022-07-26T05:53:47.144Z,1007.5
2022-07-26T05:56:59.283Z,1007.5
2022-07-26T06:00:11.440Z,1007.5
2022-07-26T06:03:23.601Z,1007.5
2022-07-26T06:06:35.741Z,1007.6
2022-07-26T06:09:47.891Z,1007.6
2022-07-26T06:12:59.056Z,1007.5
2022-07-26T06:16:11.213Z,1007.6
2022-07-26T06:19:23.366Z,1007.6
2022-07-26T06:22:35.522Z,1007.6
2022-07-26T06:25:47.683Z,1007.7
2022-07-26T06:28:59.834Z,1007.7
2022-07-26T06:32:11.980Z,1007.6
2022-07-26T06:35:23.145Z,1007.7
2022-07-26T06:38:34.316Z,1007.7
2022-07-26T06:41:45.496Z,1007.7
2022-07-26T06:44:56.658Z,1007.7
2022-07-26T06:48:08.817Z,1007.7
2022-07-26T06:51:20.972Z,1007.7
2022-07-26T06:54:33.128Z,1007.7
2022-07-26T06:57:45.000Z,1007.6
2022-07-26T07:00:57.426Z,1007.7
2022-07-26T07:04:09.581Z,1007.7
2022-07-26T07:07:21.000Z,1007.8
2022-07-26T07:10:33.868Z,1007.9
2022-07-26T07:13:46.017Z,1007.9
2022-07-26T07:16:58.185Z,1007.9
2022-07-26T07:20:10.330Z,1007.9
2022-07-26T07:23:22.490Z,1007.9
2022-07-26T07:26:33.645Z,1007.9
2022-07-26T07:29:45.805Z,1007.9
2022-07-26T07:32:57.952Z,1007.8
2022-07-26T07:36:10.097Z,1007.9
2022-07-26T07:39:22.258Z,1007.9
2022-07-26T07:42:34.417Z,1007.8
2022-07-26T07:45:46.556Z,1007.8
2022-07-26T07:48:57.745Z,1007.8
2022-07-26T07:52:08.901Z,1007.8
2022-07-26T07:55:21.061Z,1007.8
2022-07-26T07:58:33.199Z,1007.8
2022-07-26T08:01:45.358Z,1007.8
2022-07-26T08:04:57.519Z,1007.7
2022-07-26T08:08:09.657Z,1007.8
2022-07-26T08:11:21.811Z,1007.8
2022-07-26T08:14:33.973Z,1007.8
2022-07-26T08:17:46.120Z,1007.8
2022-07-26T08:20:58.274Z,1007.8
2022-07-26T08:24:10.427Z,1007.7
2022-07-26T08:27:22.581Z,1007.8
2022-07-26T08:30:34.717Z,1007.8
2022-07-26T08:33:45.889Z,1007.8
2022-07-26T08:36:58.047Z,1007.8
2022-07-26T08:40:10.194Z,1007.9
2022-07-26T08:43:22.337Z,1007.9
2022-07-26T08:46:34.502Z,1007.9
2022-07-26T08:49:46.651Z,1008
2022-07-26T08:52:58.794Z,1008
2022-07-26T08:56:09.984Z,1008
2022-07-26T08:59:21.154Z,1008
2022-07-26T09:02:33.304Z,1008.1
2022-07-26T09:05:45.455Z,1008
2022-07-26T09:08:57.613Z,1008.1
2022-07-26T09:12:09.747Z,1008.1
2022-07-26T09:15:21.913Z,1008.1
2022-07-26T09:18:34.056Z,1008.1
2022-07-26T09:21:46.217Z,1008.1
2022-07-26T09:24:58.364Z,1008.1
2022-07-26T09:28:10.519Z,1008.1
2022-07-26T09:31:22.655Z,1008.1
2022-07-26T09:34:34.826Z,1008.2
2022-07-26T09:37:46.967Z,1008.2
2022-07-26T09:40:58.141Z,1008.2
2022-07-26T09:44:10.298Z,1008
2022-07-26T09:47:22.442Z,1008.1
2022-07-26T09:50:34.601Z,1008.1
2022-07-26T09:53:46.732Z,1008.1
2022-07-26T09:56:58.895Z,1008.1
2022-07-26T10:00:11.045Z,1008.2
2022-07-26T10:03:22.215Z,1008.2
2022-07-26T10:06:33.396Z,1008.1
2022-07-26T10:09:44.572Z,1008.2
2022-07-26T10:12:55.728Z,1008.2
2022-07-26T10:16:06.928Z,1008.2
2022-07-26T10:19:18.080Z,1008.2
2022-07-26T10:22:30.237Z,1008.3
2022-07-26T10:25:42.382Z,1008.3
2022-07-26T10:28:54.546Z,1008.2
2022-07-26T10:32:06.698Z,1008.3
2022-07-26T10:35:18.846Z,1008.3
2022-07-26T10:38:31.002Z,1008.2
2022-07-26T10:41:43.142Z,1008.3
2022-07-26T10:44:55.289Z,1008.3
2022-07-26T10:48:07.451Z,1008.3
2022-07-26T10:51:19.590Z,1008.2
2022-07-26T10:54:31.752Z,1008.3
2022-07-26T10:57:43.896Z,1008.3
2022-07-26T11:00:55.063Z,1008.2
2022-07-26T11:04:07.215Z,1008.2
2022-07-26T11:07:19.378Z,1008.2
2022-07-26T11:10:31.535Z,1008.2
2022-07-26T11:13:43.671Z,1008.1
2022-07-26T11:16:55.831Z,1008.1
2022-07-26T11:20:07.985Z,1008.1
2022-07-26T11:23:19.150Z,1008.2
2022-07-26T11:26:30.331Z,1008.2
2022-07-26T11:29:42.475Z,1008.2
2022-07-26T11:32:54.632Z,1008.3
2022-07-26T11:36:06.781Z,1008.4
2022-07-26T11:39:18.926Z,1008.3
2022-07-26T11:42:31.000Z,1008.3
2022-07-26T11:45:43.243Z,1008.3
2022-07-26T11:48:55.396Z,1008.2
2022-07-26T11:52:07.531Z,1008.3
2022-07-26T11:55:19.697Z,1008.3
2022-07-26T11:58:31.840Z,1008.3
2022-07-26T12:01:43.995Z,1008.3
2022-07-26T12:04:56.145Z,1008.7
2022-07-26T12:08:07.310Z,1008.9
2022-07-26T12:11:19.460Z,1008.9
2022-07-26T12:14:31.613Z,1009.2
2022-07-26T12:17:43.772Z,1009.3
2022-07-26T12:20:55.928Z,1009.5
2022-07-26T12:24:08.069Z,1009.6
2022-07-26T12:27:20.218Z,1009.6
2022-07-26T12:30:31.410Z,1009.7
2022-07-26T12:33:42.563Z,1009.7
2022-07-26T12:36:54.720Z,1009.7
2022-07-26T12:40:06.879Z,1009.8
2022-07-26T12:43:19.032Z,1009.8
2022-07-26T12:46:31.169Z,1009.7
2022-07-26T12:49:43.328Z,1009.7
2022-07-26T12:52:55.492Z,1009.7
2022-07-26T12:56:07.634Z,1009.6
2022-07-26T12:59:19.788Z,1009.6
2022-07-26T13:02:31.936Z,1009.6
2022-07-26T13:05:44.094Z,1009.6
2022-07-26T13:08:56.231Z,1009.7
2022-07-26T13:12:08.391Z,1009.6
2022-07-26T13:15:19.562Z,1009.7
2022-07-26T13:18:31.710Z,1009.7
2022-07-26T13:21:43.863Z,1009.6
2022-07-26T13:24:56.015Z,1009.7
2022-07-26T13:28:08.163Z,1009.7
2022-07-26T13:31:20.312Z,1009.8
2022-07-26T13:34:31.503Z,1009.7
2022-07-26T13:37:42.674Z,1009.6
2022-07-26T13:40:53.835Z,1009.6
2022-07-26T13:44:05.987Z,1009.6
2022-07-26T13:47:18.137Z,1009.7
2022-07-26T13:50:30.296Z,1009.6
2022-07-26T13:53:42.443Z,1009.6
2022-07-26T13:56:54.590Z,1009.7
2022-07-26T14:00:06.743Z,1009.8
2022-07-26T14:03:18.913Z,1009.8
2022-07-26T14:06:31.056Z,1009.7
2022-07-26T14:09:43.214Z,1009.8
2022-07-26T14:12:55.364Z,1009.8
2022-07-26T14:16:07.503Z,1009.7
2022-07-26T14:19:19.662Z,1009.7
2022-07-26T14:22:30.837Z,1009.7
2022-07-26T14:25:42.979Z,1009.8
2022-07-26T14:28:55.134Z,1009.7
2022-07-26T14:32:07.296Z,1009.8
2022-07-26T14:35:19.445Z,1009.7
2022-07-26T14:38:31.597Z,1009.8
2022-07-26T14:41:43.735Z,1009.7
2022-07-26T14:44:54.920Z,1009.8
2022-07-26T14:48:06.083Z,1009.8
2022-07-26T14:51:18.240Z,1009.9
2022-07-26T14:54:30.378Z,1009.9
2022-07-26T14:57:42.535Z,1010
2022-07-26T15:00:54.695Z,1010
2022-07-26T15:04:06.837Z,1009.9
2022-07-26T15:07:18.988Z,1009.9
2022-07-26T15:10:31.130Z,1009.9
2022-07-26T15:13:43.281Z,1009.9
2022-07-26T15:16:55.434Z,1009.9
2022-07-26T15:20:07.594Z,1009.9
2022-07-26T15:23:19.738Z,1009.8
2022-07-26T15:26:31.887Z,1009.9
2022-07-26T15:29:43.066Z,1009.8
2022-07-26T15:32:55.208Z,1009.9
2022-07-26T15:36:07.360Z,1009.9
2022-07-26T15:39:19.500Z,1009.9
2022-07-26T15:42:31.659Z,1009.9
2022-07-26T15:45:43.811Z,1009.9
2022-07-26T15:48:55.960Z,1009.9
2022-07-26T15:52:07.146Z,1009.9
2022-07-26T15:55:18.309Z,1009.9
2022-07-26T15:58:29.473Z,1009.8
2022-07-26T16:01:40.647Z,1009.9
2022-07-26T16:04:52.801Z,1009.9
2022-07-26T16:08:04.945Z,1009.9
2022-07-26T16:11:17.095Z,1009.8
2022-07-26T16:14:29.242Z,1009.8
2022-07-26T16:17:41.402Z,1009.9
2022-07-26T16:20:53.555Z,1009.9
2022-07-26T16:24:05.696Z,1009.9
2022-07-26T16:27:17.841Z,1009.9
2022-07-26T16:30:30.006Z,1009.9
2022-07-26T16:33:42.143Z,1009.9
2022-07-26T16:36:54.302Z,1009.9
2022-07-26T16:40:06.458Z,1009.9
2022-07-26T16:43:17.609Z,1010
2022-07-26T16:46:29.775Z,1009.9
2022-07-26T16:49:41.915Z,1010
2022-07-26T16:52:54.076Z,1009.9
2022-07-26T16:56:06.215Z,1009.9
2022-07-26T16:59:18.362Z,1009.9
2022-07-26T17:02:30.517Z,1009.9
2022-07-26T17:05:41.701Z,1009.9
2022-07-26T17:08:52.861Z,1009.9
2022-07-26T17:12:04.048Z,1009.8
2022-07-26T17:15:15.214Z,1009.9
2022-07-26T17:18:26.375Z,1009.9
2022-07-26T17:21:37.556Z,1009.9
2022-07-26T17:24:48.738Z,1010
2022-07-26T17:27:59.898Z,1010
2022-07-26T17:31:11.079Z,1010
2022-07-26T17:34:22.243Z,1010
2022-07-26T17:37:33.407Z,1010
2022-07-26T17:40:44.579Z,1010.1
2022-07-26T17:43:56.736Z,1010.1
2022-07-26T17:47:08.881Z,1010.1
2022-07-26T17:50:21.037Z,1010.1
2022-07-26T17:53:33.173Z,1010.1
2022-07-26T17:56:45.327Z,1010
2022-07-26T17:59:57.478Z,1010.1
2022-07-26T18:03:09.631Z,1010.2
2022-07-26T18:06:21.783Z,1010.2
2022-07-26T18:09:33.970Z,1010.2
2022-07-26T18:12:46.128Z,1010.3
2022-07-26T18:15:58.279Z,1010.3
2022-07-26T18:19:10.420Z,1010.3
2022-07-26T18:22:21.595Z,1010.3
2022-07-26T18:25:33.746Z,1010.3
2022-07-26T18:28:45.887Z,1010.3
2022-07-26T18:31:58.051Z,1010.3
2022-07-26T18:35:10.189Z,1010.4
2022-07-26T18:38:22.346Z,1010.3
2022-07-26T18:41:34.491Z,1010.4
2022-07-26T18:44:45.666Z,1010.4
2022-07-26T18:47:56.844Z,1010.4
2022-07-26T18:51:08.014Z,1010.5
2022-07-26T18:54:19.175Z,1010.5
2022-07-26T18:57:31.332Z,1010.6
2022-07-26T19:00:43.477Z,1010.7
2022-07-26T19:03:55.625Z,1010.7
2022-07-26T19:07:07.794Z,1010.7
2022-07-26T19:10:19.929Z,1010.7
2022-07-26T19:13:32.078Z,1010.6
2022-07-26T19:16:44.244Z,1010.7
2022-07-26T19:19:56.384Z,1010.7
2022-07-26T19:23:08.542Z,1010.7
2022-07-26T19:26:20.685Z,1010.8
2022-07-26T19:29:32.828Z,1010.7
2022-07-26T19:32:44.993Z,1010.8
2022-07-26T19:35:56.159Z,1010.9
2022-07-26T19:39:08.310Z,1010.9
2022-07-26T19:42:20.448Z,1010.9
2022-07-26T19:45:32.611Z,1010.9
2022-07-26T19:48:44.756Z,1011
2022-07-26T19:51:56.918Z,1011
2022-07-26T19:55:09.049Z,1011.1
2022-07-26T19:58:20.231Z,1011.1
2022-07-26T20:01:31.412Z,1011.1
2022-07-26T20:04:42.570Z,1011.2
2022-07-26T20:07:53.748Z,1011.1
2022-07-26T20:14:18.052Z,1011.1
2022-07-26T20:17:30.205Z,1011.1
2022-07-26T20:20:42.355Z,1011.2
2022-07-26T20:23:54.496Z,1011.3
2022-07-26T20:27:06.639Z,1011.3
2022-07-26T20:30:18.805Z,1011.3
2022-07-26T20:33:30.955Z,1011.4
2022-07-26T20:36:43.089Z,1011.4
2022-07-26T20:39:55.248Z,1011.4
2022-07-26T20:43:07.400Z,1011.4
2022-07-26T20:46:19.542Z,1011.4
2022-07-26T20:49:30.718Z,1011.4
2022-07-26T20:52:42.857Z,1011.5
2022-07-26T20:55:55.013Z,1011.4
2022-07-26T20:59:07.161Z,1011.5
2022-07-26T21:02:19.303Z,1011.5
2022-07-26T21:05:31.455Z,1011.5
2022-07-26T21:08:43.608Z,1011.5
2022-07-26T21:11:55.766Z,1011.5
2022-07-26T21:15:06.940Z,1011.5
2022-07-26T21:18:18.101Z,1011.5
2022-07-26T21:21:29.293Z,1011.5
2022-07-26T21:24:40.453Z,1011.7
2022-07-26T21:27:52.609Z,1011.8
2022-07-26T21:31:04.755Z,1011.9
2022-07-26T21:34:16.897Z,1011.9
2022-07-26T21:37:29.043Z,1011.9
2022-07-26T21:40:41.192Z,1011.9
2022-07-26T21:43:53.352Z,1011.9
2022-07-26T21:47:05.498Z,1012
2022-07-26T21:50:17.646Z,1012
2022-07-26T21:53:29.806Z,1012.1
2022-07-26T21:56:41.950Z,1012.2
2022-07-26T21:59:54.112Z,1012.1
2022-07-26T22:03:06.253Z,1012.2
2022-07-26T22:06:17.427Z,1012.2
2022-07-26T22:09:29.567Z,1012.2
2022-07-26T22:12:41.732Z,1012.2
2022-07-26T22:15:53.884Z,1012.3
2022-07-26T22:19:06.017Z,1012.3
2022-07-26T22:22:18.180Z,1012.4
2022-07-26T22:25:30.322Z,1012.3
2022-07-26T22:28:41.504Z,1012.3
2022-07-26T22:31:52.663Z,1012.4
2022-07-26T22:35:04.827Z,1012.3
2022-07-26T22:38:16.980Z,1012.3
2022-07-26T22:41:29.131Z,1012.4
2022-07-26T22:44:41.268Z,1012.4
2022-07-26T22:47:53.425Z,1012.5
2022-07-26T22:51:05.569Z,1012.6
2022-07-26T22:54:17.720Z,1012.6
2022-07-26T22:57:29.871Z,1012.6
2022-07-26T23:00:42.035Z,1012.6
2022-07-26T23:03:54.182Z,1012.7
2022-07-26T23:07:06.318Z,1012.7
2022-07-26T23:10:18.470Z,1012.8
2022-07-26T23:13:29.650Z,1012.7
2022-07-26T23:16:41.804Z,1012.7
2022-07-26T23:19:53.942Z,1012.7
2022-07-26T23:23:06.089Z,1012.7
2022-07-26T23:26:18.238Z,1012.7
2022-07-26T23:29:30.387Z,1012.8
2022-07-26T23:32:42.544Z,1012.7
2022-07-26T23:35:53.731Z,1012.7
2022-07-26T23:39:04.883Z,1012.7
2022-07-26T23:42:16.080Z,1012.7
2022-07-26T23:45:27.231Z,1012.7
2022-07-26T23:48:39.379Z,1012.7
2022-07-26T23:51:51.543Z,1012.7
2022-07-26T23:55:03.687Z,1012.6
2022-07-26T23:58:15.829Z,1012.6
